createdAt,value
2022-09-26T00:00:10.470Z,10.84
2022-09-26T00:02:40.836Z,10.84
2022-09-26T00:05:12.145Z,10.82
2022-09-26T00:07:42.423Z,10.78
2022-09-26T00:10:13.002Z,10.76
2022-09-26T00:12:43.284Z,10.74
2022-09-26T00:15:14.143Z,10.70
2022-09-26T00:17:44.463Z,10.65
2022-09-26T00:20:15.353Z,10.60
2022-09-26T00:22:45.645Z,10.55
2022-09-26T00:25:15.976Z,10.54
2022-09-26T00:27:46.414Z,10.53
2022-09-26T00:30:16.953Z,10.53
2022-09-26T00:32:47.288Z,10.54
2022-09-26T00:35:17.716Z,10.54
2022-09-26T00:37:47.961Z,10.56
2022-09-26T00:40:18.323Z,10.56
2022-09-26T00:42:48.715Z,10.55
2022-09-26T00:45:19.205Z,10.49
2022-09-26T00:47:58.081Z,10.45
2022-09-26T00:50:32.072Z,10.44
2022-09-26T00:53:07.438Z,10.44
2022-09-26T00:55:46.328Z,10.44
2022-09-26T00:58:20.997Z,10.42
2022-09-26T01:00:52.195Z,10.40
2022-09-26T01:03:23.550Z,10.39
2022-09-26T01:05:54.422Z,10.39
2022-09-26T01:08:34.248Z,10.37
2022-09-26T01:11:05.120Z,10.35
2022-09-26T01:13:36.864Z,10.33
2022-09-26T01:16:07.543Z,10.32
2022-09-26T01:18:38.504Z,10.32
2022-09-26T01:21:28.008Z,10.29
2022-09-26T01:24:29.426Z,10.21
2022-09-26T01:27:35.830Z,10.14
2022-09-26T01:30:10.695Z,10.10
2022-09-26T01:33:03.761Z,10.08
2022-09-26T01:35:59.681Z,10.05
2022-09-26T01:38:40.839Z,10.03
2022-09-26T01:41:27.705Z,10.01
2022-09-26T01:44:08.276Z,10.01
2022-09-26T01:46:46.768Z,10.01
2022-09-26T01:49:22.272Z,10.00
2022-09-26T01:52:04.387Z,9.99
2022-09-26T01:54:39.942Z,9.98
2022-09-26T01:57:15.533Z,9.97
2022-09-26T01:59:49.980Z,9.96
2022-09-26T02:02:25.508Z,9.94
2022-09-26T02:05:02.542Z,9.93
2022-09-26T02:07:40.082Z,9.93
2022-09-26T02:10:17.800Z,9.93
2022-09-26T02:12:55.088Z,9.93
2022-09-26T02:15:28.328Z,9.94
2022-09-26T02:18:03.660Z,9.87
2022-09-26T02:20:38.303Z,9.69
2022-09-26T02:23:08.909Z,9.63
2022-09-26T02:25:39.619Z,9.55
2022-09-26T02:28:10.395Z,9.50
2022-09-26T02:30:44.497Z,9.48
2022-09-26T02:33:15.396Z,9.49
2022-09-26T02:35:55.226Z,9.52
2022-09-26T02:38:27.803Z,9.53
2022-09-26T02:41:09.833Z,9.53
2022-09-26T02:43:51.206Z,9.40
2022-09-26T02:46:45.958Z,9.27
2022-09-26T02:49:38.490Z,9.25
2022-09-26T02:52:25.932Z,9.26
2022-09-26T02:55:05.041Z,9.28
2022-09-26T02:57:46.103Z,9.22
2022-09-26T03:00:21.514Z,9.17
2022-09-26T03:02:58.768Z,9.12
2022-09-26T03:05:31.159Z,9.07
2022-09-26T03:08:05.889Z,9.08
2022-09-26T03:10:38.374Z,9.08
2022-09-26T03:13:12.312Z,9.09
2022-09-26T03:15:46.467Z,9.12
2022-09-26T03:18:20.894Z,9.14
2022-09-26T03:20:54.146Z,9.15
2022-09-26T03:23:26.880Z,9.14
2022-09-26T03:26:11.397Z,9.11
2022-09-26T03:28:42.411Z,9.11
2022-09-26T03:31:13.133Z,9.09
2022-09-26T03:33:43.535Z,9.10
2022-09-26T03:36:14.231Z,9.08
2022-09-26T03:38:44.648Z,9.01
2022-09-26T03:41:15.469Z,8.95
2022-09-26T03:43:45.746Z,8.79
2022-09-26T03:46:16.303Z,8.73
2022-09-26T03:48:49.295Z,8.74
2022-09-26T03:51:21.095Z,8.76
2022-09-26T03:53:51.920Z,8.78
2022-09-26T03:56:23.515Z,8.75
2022-09-26T03:58:54.152Z,8.65
2022-09-26T04:01:25.343Z,8.53
2022-09-26T04:03:57.618Z,8.47
2022-09-26T04:06:27.989Z,8.49
2022-09-26T04:08:58.732Z,8.50
2022-09-26T04:11:29.180Z,8.54
2022-09-26T04:13:59.479Z,8.58
2022-09-26T04:16:30.528Z,8.61
2022-09-26T04:19:00.935Z,8.62
2022-09-26T04:21:31.369Z,8.63
2022-09-26T04:24:02.486Z,8.66
2022-09-26T04:26:32.767Z,8.67
2022-09-26T04:29:03.102Z,8.59
2022-09-26T04:31:36.659Z,8.49
2022-09-26T04:34:07.648Z,8.47
2022-09-26T04:36:37.971Z,8.46
2022-09-26T04:39:08.430Z,8.49
2022-09-26T04:41:39.453Z,8.51
2022-09-26T04:44:11.277Z,8.47
2022-09-26T04:46:43.939Z,8.43
2022-09-26T04:49:14.452Z,8.43
2022-09-26T04:51:44.911Z,8.48
2022-09-26T04:54:16.176Z,8.54
2022-09-26T04:56:46.749Z,8.60
2022-09-26T04:59:19.054Z,8.64
2022-09-26T05:01:49.388Z,8.67
2022-09-26T05:04:22.815Z,8.72
2022-09-26T05:06:57.646Z,8.77
2022-09-26T05:09:29.941Z,8.80
2022-09-26T05:12:03.523Z,8.83
2022-09-26T05:14:35.492Z,8.85
2022-09-26T05:17:06.092Z,8.88
2022-09-26T05:19:36.428Z,8.89
2022-09-26T05:22:06.772Z,8.92
2022-09-26T05:24:54.571Z,8.98
2022-09-26T05:27:25.013Z,9.04
2022-09-26T05:29:55.927Z,9.11
2022-09-26T05:32:28.771Z,9.17
2022-09-26T05:34:59.080Z,9.22
2022-09-26T05:37:29.361Z,9.29
2022-09-26T05:40:17.302Z,9.34
2022-09-26T05:42:47.611Z,9.40
2022-09-26T05:45:18.374Z,9.45
2022-09-26T05:47:48.740Z,9.50
2022-09-26T05:50:22.401Z,9.55
2022-09-26T05:52:52.798Z,9.60
2022-09-26T05:55:24.093Z,9.65
2022-09-26T05:57:55.693Z,9.69
2022-09-26T06:00:26.501Z,9.73
2022-09-26T06:03:02.899Z,9.77
2022-09-26T06:05:34.206Z,9.79
2022-09-26T06:08:04.632Z,9.82
2022-09-26T06:10:37.367Z,9.84
2022-09-26T06:13:08.772Z,9.87
2022-09-26T06:15:39.970Z,9.91
2022-09-26T06:18:10.274Z,9.94
2022-09-26T06:20:40.630Z,9.96
2022-09-26T06:23:10.880Z,9.99
2022-09-26T06:25:41.196Z,10.02
2022-09-26T06:28:11.457Z,10.07
2022-09-26T06:30:41.756Z,10.12
2022-09-26T06:33:12.066Z,10.17
2022-09-26T06:35:42.463Z,10.21
2022-09-26T06:38:12.801Z,10.24
2022-09-26T06:40:43.136Z,10.29
2022-09-26T06:43:14.020Z,10.33
2022-09-26T06:45:46.039Z,10.34
2022-09-26T06:48:20.992Z,10.36
2022-09-26T06:50:57.136Z,10.38
2022-09-26T06:53:27.927Z,10.41
2022-09-26T06:55:59.152Z,10.44
2022-09-26T06:58:29.444Z,10.49
2022-09-26T07:01:01.353Z,10.53
2022-09-26T07:03:31.909Z,10.57
2022-09-26T07:06:03.424Z,10.59
2022-09-26T07:09:00.395Z,10.63
2022-09-26T07:14:16.788Z,10.72
2022-09-26T07:16:50.800Z,10.76
2022-09-26T07:19:21.119Z,10.83
2022-09-26T07:21:51.390Z,10.89
2022-09-26T07:24:21.950Z,10.95
2022-09-26T07:26:52.358Z,11.01
2022-09-26T07:29:22.864Z,11.03
2022-09-26T07:31:53.966Z,11.07
2022-09-26T07:34:25.204Z,11.08
2022-09-26T07:36:57.975Z,11.09
2022-09-26T07:39:28.715Z,11.11
2022-09-26T07:42:00.708Z,11.12
2022-09-26T07:45:17.058Z,11.15
2022-09-26T07:47:39.039Z,11.20
2022-09-26T07:50:14.640Z,11.22
2022-09-26T07:52:46.354Z,11.25
2022-09-26T07:55:19.275Z,11.29
2022-09-26T07:57:50.159Z,11.33
2022-09-26T08:00:22.906Z,11.39
2022-09-26T08:02:53.410Z,11.47
2022-09-26T08:05:25.017Z,11.55
2022-09-26T08:07:57.455Z,11.64
2022-09-26T08:10:27.902Z,11.74
2022-09-26T08:13:01.596Z,11.83
2022-09-26T08:15:31.927Z,11.91
2022-09-26T08:18:02.189Z,12.00
2022-09-26T08:20:32.557Z,12.07
2022-09-26T08:23:02.872Z,12.14
2022-09-26T08:25:33.162Z,12.22
2022-09-26T08:28:07.456Z,12.33
2022-09-26T08:30:37.851Z,12.42
2022-09-26T08:33:08.782Z,12.49
2022-09-26T08:35:39.754Z,12.56
2022-09-26T08:38:11.235Z,12.64
2022-09-26T08:40:53.010Z,12.76
2022-09-26T08:43:36.386Z,12.90
2022-09-26T08:46:43.038Z,13.02
2022-09-26T08:49:41.785Z,13.13
2022-09-26T08:52:30.956Z,13.21
2022-09-26T08:55:08.730Z,13.27
2022-09-26T08:57:43.502Z,13.33
2022-09-26T09:00:22.681Z,13.38
2022-09-26T09:03:04.265Z,13.45
2022-09-26T09:05:39.063Z,13.49
2022-09-26T09:08:15.465Z,13.54
2022-09-26T09:10:55.193Z,13.61
2022-09-26T09:13:45.725Z,13.72
2022-09-26T09:16:40.494Z,13.85
2022-09-26T09:19:23.549Z,13.98
2022-09-26T09:22:06.482Z,14.06
2022-09-26T09:24:54.720Z,14.13
2022-09-26T09:27:53.825Z,14.20
2022-09-26T09:30:30.094Z,14.32
2022-09-26T09:33:04.194Z,14.37
2022-09-26T09:35:42.555Z,14.41
2022-09-26T09:38:18.202Z,14.51
2022-09-26T09:40:59.215Z,14.62
2022-09-26T09:43:35.799Z,14.68
2022-09-26T09:46:14.190Z,14.71
2022-09-26T09:48:49.474Z,14.66
2022-09-26T09:51:35.542Z,14.62
2022-09-26T09:54:25.790Z,14.60
2022-09-26T09:57:13.725Z,14.58
2022-09-26T10:00:10.451Z,14.56
2022-09-26T10:02:47.803Z,14.62
2022-09-26T10:05:33.661Z,14.69
2022-09-26T10:08:09.870Z,14.69
2022-09-26T10:10:46.124Z,14.65
2022-09-26T10:13:17.974Z,14.61
2022-09-26T10:15:59.128Z,14.60
2022-09-26T10:18:31.357Z,14.55
2022-09-26T10:21:09.001Z,14.47
2022-09-26T10:23:43.105Z,14.38
2022-09-26T10:26:14.836Z,14.28
2022-09-26T10:28:52.694Z,14.21
2022-09-26T10:31:29.361Z,14.13
2022-09-26T10:34:03.551Z,14.05
2022-09-26T10:36:36.427Z,13.98
2022-09-26T10:39:38.002Z,13.90
2022-09-26T10:42:20.178Z,13.80
2022-09-26T10:44:51.173Z,13.72
2022-09-26T10:47:25.911Z,13.65
2022-09-26T10:50:03.111Z,13.59
2022-09-26T10:52:40.064Z,13.51
2022-09-26T10:55:15.138Z,13.42
2022-09-26T10:57:50.936Z,13.32
2022-09-26T11:00:36.755Z,13.24
2022-09-26T11:03:08.906Z,13.17
2022-09-26T11:06:00.305Z,13.14
2022-09-26T11:08:32.924Z,13.12
2022-09-26T11:11:06.284Z,13.09
2022-09-26T11:13:48.291Z,13.09
2022-09-26T11:16:20.220Z,13.10
2022-09-26T11:18:58.897Z,13.03
2022-09-26T11:21:37.762Z,12.94
2022-09-26T11:24:16.448Z,12.90
2022-09-26T11:26:55.713Z,12.88
2022-09-26T11:29:38.164Z,12.91
2022-09-26T11:32:10.606Z,12.93
2022-09-26T11:34:41.689Z,12.94
2022-09-26T11:37:30.859Z,12.92
2022-09-26T11:40:18.082Z,12.91
2022-09-26T11:43:00.562Z,12.94
2022-09-26T11:45:47.195Z,12.97
2022-09-26T11:48:36.167Z,13.03
2022-09-26T11:51:15.730Z,13.07
2022-09-26T11:54:04.163Z,13.11
2022-09-26T11:56:58.850Z,13.13
2022-09-26T11:59:47.701Z,13.06
2022-09-26T12:02:42.514Z,13.04
2022-09-26T12:05:27.435Z,13.12
2022-09-26T12:08:16.147Z,13.22
2022-09-26T12:10:57.689Z,13.32
2022-09-26T12:13:41.547Z,13.42
2022-09-26T12:16:22.217Z,13.53
2022-09-26T12:19:03.231Z,13.50
2022-09-26T12:22:07.703Z,13.50
2022-09-26T12:24:47.708Z,13.52
2022-09-26T12:27:26.599Z,13.51
2022-09-26T12:30:07.523Z,13.51
2022-09-26T12:32:52.031Z,13.53
2022-09-26T12:35:36.238Z,13.50
2022-09-26T12:38:39.514Z,13.50
2022-09-26T12:41:40.240Z,13.52
2022-09-26T12:44:23.240Z,13.54
2022-09-26T12:47:12.682Z,13.55
2022-09-26T12:50:06.085Z,13.60
2022-09-26T12:53:06.617Z,13.66
2022-09-26T12:55:43.912Z,13.71
2022-09-26T12:58:33.329Z,13.78
2022-09-26T13:01:12.237Z,13.88
2022-09-26T13:03:57.838Z,13.95
2022-09-26T13:07:08.039Z,14.00
2022-09-26T13:10:11.725Z,14.01
2022-09-26T13:13:02.559Z,14.11
2022-09-26T13:15:43.007Z,14.20
2022-09-26T13:18:23.017Z,14.33
2022-09-26T13:20:59.060Z,14.41
2022-09-26T13:23:35.406Z,14.44
2022-09-26T13:26:14.299Z,14.42
2022-09-26T13:29:15.763Z,14.43
2022-09-26T13:31:47.828Z,14.51
2022-09-26T13:34:23.964Z,14.59
2022-09-26T13:36:56.141Z,14.62
2022-09-26T13:39:32.758Z,14.63
2022-09-26T13:42:07.612Z,14.67
2022-09-26T13:44:56.440Z,14.71
2022-09-26T13:47:39.705Z,14.76
2022-09-26T13:50:23.383Z,14.78
2022-09-26T13:53:07.626Z,14.80
2022-09-26T13:55:37.937Z,14.83
2022-09-26T13:58:22.197Z,14.94
2022-09-26T14:00:56.174Z,15.34
2022-09-26T14:03:43.790Z,15.68
2022-09-26T14:06:31.986Z,15.91
2022-09-26T14:09:27.839Z,16.04
2022-09-26T14:12:20.278Z,16.05
2022-09-26T14:15:08.406Z,16.09
2022-09-26T14:18:17.809Z,16.05
2022-09-26T14:21:05.038Z,15.95
2022-09-26T14:23:42.819Z,15.91
2022-09-26T14:26:15.493Z,15.86
2022-09-26T14:28:53.557Z,15.76
2022-09-26T14:31:40.145Z,15.66
2022-09-26T14:34:30.592Z,15.54
2022-09-26T14:37:05.325Z,15.45
2022-09-26T14:39:45.648Z,15.42
2022-09-26T14:42:24.128Z,15.32
2022-09-26T14:44:59.040Z,15.20
2022-09-26T14:47:32.218Z,15.11
2022-09-26T14:50:07.656Z,15.12
2022-09-26T14:52:39.637Z,15.16
2022-09-26T14:55:16.621Z,15.23
2022-09-26T14:57:49.481Z,15.27
2022-09-26T15:00:47.692Z,15.30
2022-09-26T15:03:20.588Z,15.33
2022-09-26T15:05:51.970Z,15.34
2022-09-26T15:08:27.331Z,15.31
2022-09-26T15:11:00.843Z,15.28
2022-09-26T15:13:37.519Z,15.21
2022-09-26T15:16:22.262Z,15.13
2022-09-26T15:18:56.907Z,14.98
2022-09-26T15:21:33.854Z,14.81
2022-09-26T15:24:24.044Z,14.65
2022-09-26T15:26:56.347Z,14.54
2022-09-26T15:29:27.667Z,14.50
2022-09-26T15:31:57.954Z,14.45
2022-09-26T15:34:34.683Z,14.40
2022-09-26T15:37:17.113Z,14.35
2022-09-26T15:39:47.489Z,14.32
2022-09-26T15:42:55.188Z,14.31
2022-09-26T15:45:33.472Z,14.24
2022-09-26T15:48:25.054Z,14.16
2022-09-26T15:50:57.748Z,14.11
2022-09-26T15:53:31.548Z,14.07
2022-09-26T15:56:06.393Z,14.05
2022-09-26T15:58:43.681Z,14.02
2022-09-26T16:01:25.994Z,13.98
2022-09-26T16:04:00.973Z,13.94
2022-09-26T16:06:34.714Z,13.90
2022-09-26T16:09:19.440Z,13.82
2022-09-26T16:11:52.660Z,13.74
2022-09-26T16:14:31.468Z,13.68
2022-09-26T16:17:12.158Z,13.62
2022-09-26T16:19:48.459Z,13.54
2022-09-26T16:22:44.803Z,13.48
2022-09-26T16:25:36.619Z,13.42
2022-09-26T16:28:22.850Z,13.34
2022-09-26T16:31:15.324Z,13.22
2022-09-26T16:33:53.438Z,13.12
2022-09-26T16:36:25.322Z,13.01
2022-09-26T16:38:58.695Z,12.92
2022-09-26T16:41:59.918Z,12.83
2022-09-26T16:44:34.835Z,12.72
2022-09-26T16:47:09.246Z,12.65
2022-09-26T16:49:48.499Z,12.58
2022-09-26T16:52:34.434Z,12.50
2022-09-26T16:55:07.065Z,12.43
2022-09-26T16:57:40.356Z,12.37
2022-09-26T17:00:36.720Z,12.32
2022-09-26T17:03:22.224Z,12.26
2022-09-26T17:05:54.910Z,12.17
2022-09-26T17:08:26.551Z,12.08
2022-09-26T17:10:59.619Z,12.00
2022-09-26T17:13:33.179Z,11.91
2022-09-26T17:16:04.078Z,11.84
2022-09-26T17:18:35.154Z,11.77
2022-09-26T17:21:05.731Z,11.68
2022-09-26T17:23:40.929Z,11.62
2022-09-26T17:26:18.270Z,11.56
2022-09-26T17:28:49.259Z,11.53
2022-09-26T17:31:20.988Z,11.48
2022-09-26T17:33:54.447Z,11.43
2022-09-26T17:36:30.683Z,11.39
2022-09-26T17:39:02.733Z,11.33
2022-09-26T17:41:34.598Z,11.28
2022-09-26T17:44:05.040Z,11.24
2022-09-26T17:46:37.560Z,11.21
2022-09-26T17:49:13.203Z,11.17
2022-09-26T17:51:43.899Z,11.11
2022-09-26T17:54:20.468Z,10.97
2022-09-26T17:56:51.265Z,10.83
2022-09-26T17:59:25.580Z,10.79
2022-09-26T18:01:58.960Z,10.78
2022-09-26T18:04:30.749Z,10.76
2022-09-26T18:07:05.387Z,10.74
2022-09-26T18:09:39.497Z,10.74
2022-09-26T18:12:16.249Z,10.73
2022-09-26T18:14:47.370Z,10.67
2022-09-26T18:17:19.249Z,10.63
2022-09-26T18:19:50.806Z,10.56
2022-09-26T18:22:27.648Z,10.52
2022-09-26T18:25:04.376Z,10.48
2022-09-26T18:27:39.739Z,10.45
2022-09-26T18:30:14.990Z,10.41
2022-09-26T18:32:50.813Z,10.38
2022-09-26T18:35:25.147Z,10.34
2022-09-26T18:37:56.770Z,10.31
2022-09-26T18:40:29.661Z,10.28
2022-09-26T18:43:02.053Z,10.28
2022-09-26T18:45:36.028Z,10.27
2022-09-26T18:48:09.012Z,10.26
2022-09-26T18:50:41.038Z,10.22
2022-09-26T18:53:16.739Z,10.21
2022-09-26T18:56:13.345Z,10.18
2022-09-26T18:58:44.111Z,10.18
2022-09-26T19:01:21.431Z,10.17
2022-09-26T19:03:53.004Z,10.17
2022-09-26T19:06:25.842Z,10.16
2022-09-26T19:09:01.474Z,10.15
2022-09-26T19:11:34.780Z,10.15
2022-09-26T19:14:15.335Z,10.15
2022-09-26T19:16:47.549Z,10.13
2022-09-26T19:19:18.411Z,10.11
2022-09-26T19:21:52.021Z,10.10
2022-09-26T19:24:30.551Z,10.08
2022-09-26T19:27:06.475Z,10.07
2022-09-26T19:29:41.865Z,10.07
2022-09-26T19:32:21.420Z,10.06
2022-09-26T19:34:56.728Z,10.05
2022-09-26T19:37:27.182Z,10.04
2022-09-26T19:39:58.044Z,10.02
2022-09-26T19:42:28.603Z,10.02
2022-09-26T19:44:59.376Z,10.00
2022-09-26T19:47:33.523Z,9.99
2022-09-26T19:50:04.133Z,9.97
2022-09-26T19:52:34.733Z,9.96
2022-09-26T19:55:06.906Z,9.95
2022-09-26T19:57:37.315Z,9.93
2022-09-26T20:00:10.460Z,9.93
2022-09-26T20:02:41.372Z,9.92
2022-09-26T20:05:20.063Z,9.91
2022-09-26T20:07:50.551Z,9.86
2022-09-26T20:10:25.238Z,9.68
2022-09-26T20:12:56.320Z,9.44
2022-09-26T20:15:26.854Z,9.26
2022-09-26T20:17:58.419Z,9.17
2022-09-26T20:20:29.119Z,9.08
2022-09-26T20:22:59.548Z,8.99
2022-09-26T20:25:32.153Z,8.98
2022-09-26T20:28:03.513Z,9.01
2022-09-26T20:30:51.633Z,9.08
2022-09-26T20:33:23.928Z,9.15
2022-09-26T20:36:02.368Z,9.21
2022-09-26T20:38:37.900Z,9.25
2022-09-26T20:41:13.993Z,9.30
2022-09-26T20:43:48.611Z,9.33
2022-09-26T20:46:20.934Z,9.34
2022-09-26T20:48:52.497Z,9.36
2022-09-26T20:51:29.000Z,9.37
2022-09-26T20:54:01.126Z,9.38
2022-09-26T20:56:31.730Z,9.38
2022-09-26T20:59:02.057Z,9.39
2022-09-26T21:01:32.487Z,9.40
2022-09-26T21:04:05.375Z,9.40
2022-09-26T21:06:37.221Z,9.41
2022-09-26T21:09:11.853Z,9.42
2022-09-26T21:11:42.630Z,9.44
2022-09-26T21:14:13.317Z,9.46
2022-09-26T21:16:46.658Z,9.49
2022-09-26T21:19:22.370Z,9.52
2022-09-26T21:21:53.607Z,9.54
2022-09-26T21:24:30.858Z,9.56
2022-09-26T21:27:01.503Z,9.57
2022-09-26T21:29:32.042Z,9.60
2022-09-26T21:32:04.628Z,9.62
2022-09-26T21:34:36.378Z,9.64
2022-09-26T21:37:11.099Z,9.66
2022-09-26T21:39:41.446Z,9.68
2022-09-26T21:42:11.738Z,9.70
2022-09-26T21:44:45.041Z,9.72
2022-09-26T21:47:15.611Z,9.75
2022-09-26T21:49:46.613Z,9.78
2022-09-26T21:52:22.568Z,9.79
2022-09-26T21:54:53.860Z,9.82
2022-09-26T21:57:28.142Z,9.83
2022-09-26T22:00:00.163Z,9.86
2022-09-26T22:02:30.543Z,9.88
2022-09-26T22:05:00.888Z,9.89
2022-09-26T22:07:31.268Z,9.92
2022-09-26T22:10:01.622Z,9.94
2022-09-26T22:12:31.938Z,9.94
2022-09-26T22:15:02.277Z,9.94
2022-09-26T22:17:32.568Z,9.93
2022-09-26T22:20:03.191Z,9.92
2022-09-26T22:22:33.491Z,9.90
2022-09-26T22:25:04.487Z,9.88
2022-09-26T22:27:36.257Z,9.87
2022-09-26T22:30:07.934Z,9.85
2022-09-26T22:32:38.246Z,9.82
2022-09-26T22:35:09.474Z,9.81
2022-09-26T22:37:40.318Z,9.80
2022-09-26T22:40:11.689Z,9.78
2022-09-26T22:42:42.004Z,9.76
2022-09-26T22:45:13.543Z,9.74
2022-09-26T22:47:43.977Z,9.72
2022-09-26T22:50:14.259Z,9.71
2022-09-26T22:52:44.989Z,9.70
2022-09-26T22:55:15.426Z,9.70
2022-09-26T22:57:46.079Z,9.69
2022-09-26T23:00:17.315Z,9.69
2022-09-26T23:02:47.595Z,9.68
2022-09-26T23:05:18.078Z,9.69
2022-09-26T23:07:48.361Z,9.70
2022-09-26T23:10:22.242Z,9.70
2022-09-26T23:12:52.550Z,9.70
2022-09-26T23:15:23.182Z,9.70
2022-09-26T23:17:53.461Z,9.70
2022-09-26T23:20:23.809Z,9.71
2022-09-26T23:22:54.186Z,9.70
2022-09-26T23:25:24.717Z,9.70
2022-09-26T23:27:55.031Z,9.70
2022-09-26T23:30:25.348Z,9.70
2022-09-26T23:32:55.569Z,9.70
2022-09-26T23:35:25.893Z,9.72
2022-09-26T23:37:58.069Z,9.73
2022-09-26T23:40:29.519Z,9.74
2022-09-26T23:42:59.896Z,9.74
2022-09-26T23:45:31.106Z,9.74
2022-09-26T23:48:01.613Z,9.75
2022-09-26T23:50:31.874Z,9.77
2022-09-26T23:53:06.337Z,9.77
2022-09-26T23:55:37.031Z,9.79
2022-09-26T23:58:07.745Z,9.80
